Latest Weather Observations for Padthaway

IDS60801

Issued at 7:31 pm CST Thursday 30 July 2015 (issued every 30 minutes, with the page automatically refreshed every 10 minutes)

About weather observations | Map of weather stations | Latest weather observations for SA | Other Formats
Station Details ID: 026100 Name: PADTHAWAY SOUTH Lat: -36.65 Lon: 140.52 Height: 37.0 m
Data from the previous 72 hours. | See also: Recent months at Padthaway
Date/Time
CST
Temp
°C
App
Temp
°C
Dew
Point
Rel
Hum
%
Delta-T
°C
Wind Press
QNH
hPa
Press
MSL
hPa
Rain
since 9 am
mm
Dir
 
Spd
km/h
Gust
km/h
Spd
kts
Gust
kts
30/07:30pm 8.8 6.6 7.9 94 0.4 SW 9 13 5 7 - - 2.4
30/07:00pm 9.4 7.3 8.2 92 0.6 WSW 9 13 5 7 - - 2.4
30/06:30pm 9.9 7.1 8.5 91 0.7 SW 13 17 7 9 - - 2.2
30/06:00pm 10.1 6.3 9.0 93 0.5 SW 19 39 10 21 - - 2.2
30/05:30pm 10.7 6.8 9.6 93 0.6 SW 20 35 11 19 - - 1.4
30/05:00pm 11.5 7.0 9.9 90 0.8 W 24 37 13 20 - - 1.2
30/04:30pm 12.9 7.7 10.1 83 1.4 NW 28 37 15 20 - - 0.0
30/04:00pm 13.1 7.2 9.0 76 2.1 NW 30 43 16 23 - - 0.0
30/03:30pm 12.5 5.2 8.6 77 1.9 WNW 37 48 20 26 - - 0.0
30/03:14pm 12.5 5.5 8.4 76 2.0 NW 35 54 19 29 - - 0.0
30/03:00pm 13.1 5.9 7.8 70 2.6 WNW 35 50 19 27 - - 0.0
30/02:33pm 14.0 7.9 6.8 62 3.5 NW 28 48 15 26 - - 0.0
30/02:30pm 14.0 8.4 7.1 63 3.4 NW 26 43 14 23 - - 0.0
30/02:00pm 13.3 6.5 5.0 57 3.9 NW 30 43 16 23 - - 0.0
30/01:30pm 12.8 6.5 5.5 61 3.4 NNW 28 39 15 21 - - 0.0
30/01:02pm 12.5 5.2 4.5 58 3.6 NNW 32 50 17 27 - - 0.0
30/01:00pm 12.5 5.6 4.7 59 3.6 NNW 30 43 16 23 - - 0.0
30/12:30pm 12.4 5.5 4.4 58 3.6 NNW 30 41 16 22 - - 0.0
30/12:00pm 12.2 4.8 3.9 57 3.7 NNW 32 46 17 25 - - 0.0
30/11:50am 12.3 5.2 3.8 56 3.8 NNW 30 50 16 27 - - 0.0
30/11:30am 11.2 4.4 4.9 65 2.9 NNW 30 43 16 23 - - 0.0
30/11:00am 9.8 3.7 4.6 70 2.3 N 26 33 14 18 - - 0.0
30/10:30am 10.2 3.9 3.9 65 2.8 N 26 39 14 21 - - 0.0
30/10:10am 10.2 3.3 2.8 60 3.2 N 28 46 15 25 - - 0.0
30/10:00am 9.8 3.4 3.1 63 2.9 N 26 35 14 19 - - 0.0
30/09:30am 9.9 2.7 3.0 62 3.0 N 30 43 16 23 - - 0.0
30/09:00am 9.5 3.4 3.0 64 2.8 N 24 35 13 19 - - 0.2
30/08:30am 8.6 2.5 3.0 68 2.4 N 24 35 13 19 - - 0.2
30/08:00am 8.2 2.1 2.9 69 2.2 N 24 33 13 18 - - 0.2
30/07:30am 7.7 1.7 3.2 73 1.9 N 24 33 13 18 - - 0.2
30/07:00am 8.2 2.8 2.7 68 2.3 N 20 32 11 17 - - 0.0
30/06:30am 8.5 3.1 2.5 66 2.5 N 20 32 11 17 - - 0.0
30/06:00am 8.6 3.2 2.2 64 2.7 N 20 30 11 16 - - 0.0
30/05:30am 8.3 3.1 2.3 66 2.5 N 19 28 10 15 - - 0.0
30/05:00am 8.5 2.7 2.3 65 2.6 N 22 32 12 17 - - 0.0
30/04:30am 8.2 2.5 2.7 68 2.3 N 22 30 12 16 - - 0.0
30/04:00am 8.4 2.2 2.4 66 2.5 N 24 35 13 19 - - 0.0
30/03:30am 8.2 2.0 2.4 67 2.4 N 24 32 13 17 - - 0.0
30/03:00am 8.0 1.9 2.7 69 2.2 N 24 33 13 18 - - 0.0
30/02:30am 8.2 2.0 2.4 67 2.4 N 24 39 13 21 - - 0.0
30/02:00am 7.8 2.1 2.7 70 2.1 N 22 32 12 17 - - 0.0
30/01:30am 7.6 2.2 2.7 71 2.1 N 20 32 11 17 - - 0.0
30/01:00am 7.6 2.3 2.9 72 2.0 N 20 28 11 15 - - 0.0
30/12:30am 7.8 3.1 2.9 71 2.1 N 17 26 9 14 - - 0.0
30/12:00am 7.8 3.1 2.9 71 2.1 N 17 24 9 13 - - 0.0
 
Date/Time
CST
Temp
°C
App
Temp
°C
Dew
Point
Rel
Hum
%
Delta-T
°C
Wind Press
QNH
hPa
Press
MSL
hPa
Rain
since 9 am
mm
Dir
 
Spd
km/h
Gust
km/h
Spd
kts
Gust
kts
29/11:30pm 8.2 3.1 3.1 70 2.2 N 19 30 10 16 - - 0.0
29/11:00pm 8.7 3.4 3.1 68 2.4 N 20 30 11 16 - - 0.0
29/10:30pm 8.6 3.9 3.2 69 2.3 N 17 24 9 13 - - 0.0
29/10:00pm 8.9 4.3 3.5 69 2.3 N 17 26 9 14 - - 0.0
29/09:30pm 8.8 3.8 3.6 70 2.2 N 19 26 10 14 - - 0.0
29/09:00pm 9.0 4.0 3.8 70 2.3 N 19 28 10 15 - - 0.0
29/08:30pm 9.3 5.2 4.1 70 2.3 N 15 20 8 11 - - 0.0
29/08:00pm 9.3 4.4 4.1 70 2.3 NNE 19 24 10 13 - - 0.0
29/07:30pm 9.7 5.2 4.1 68 2.5 N 17 22 9 12 - - 0.0
29/07:00pm 9.9 5.0 4.3 68 2.5 N 19 24 10 13 - - 0.0
29/06:30pm 9.7 5.3 4.5 70 2.3 N 17 22 9 12 - - 0.0
29/06:00pm 9.6 5.9 4.6 71 2.2 NNE 13 17 7 9 - - 0.0
29/05:30pm 9.9 5.8 4.5 69 2.4 NNE 15 17 8 9 - - 0.0
29/05:00pm 10.2 6.5 4.6 68 2.5 N 13 19 7 10 - - 0.0
29/04:30pm 10.4 6.7 4.5 67 2.6 N 13 17 7 9 - - 0.0
29/04:00pm 10.6 6.2 4.5 66 2.7 N 17 22 9 12 - - 0.0
29/03:30pm 10.9 6.0 4.1 63 3.0 N 19 26 10 14 - - 0.0
29/03:00pm 11.1 5.5 3.6 60 3.3 NNW 22 33 12 18 - - 0.0
29/02:30pm 11.3 5.8 3.8 60 3.3 N 22 32 12 17 - - 0.0
29/02:00pm 11.4 5.9 3.9 60 3.3 N 22 32 12 17 - - 0.0
29/01:30pm 11.8 4.8 4.1 59 3.5 N 30 43 16 23 - - 0.0
29/01:00pm 11.7 5.6 4.7 62 3.2 N 26 39 14 21 - - 0.0
29/12:30pm 11.3 5.1 4.3 62 3.1 N 26 35 14 19 - - 0.0
29/12:00pm 11.1 5.8 4.8 65 2.9 N 22 30 12 16 - - 0.0
29/11:30am 10.8 5.5 4.9 67 2.7 NNW 22 33 12 18 - - 0.0
29/11:00am 10.6 5.6 4.7 67 2.7 N 20 30 11 16 - - 0.0
29/10:30am 10.2 5.3 5.2 71 2.3 N 20 28 11 15 - - 0.0
29/10:00am 9.8 4.5 5.0 72 2.2 N 22 30 12 16 - - 0.0
29/09:30am 9.7 4.0 5.1 73 2.1 N 24 32 13 17 - - 0.0
29/09:00am 9.4 5.5 5.4 76 1.8 N 15 24 8 13 - - 0.0
29/08:30am 8.9 5.9 6.0 82 1.3 N 11 15 6 8 - - 0.0
29/08:00am 8.7 5.3 5.8 82 1.3 N 13 17 7 9 - - 0.0
29/07:30am 8.6 4.8 5.7 82 1.3 NNE 15 20 8 11 - - 0.0
29/07:00am 8.7 5.0 6.2 84 1.1 NNE 15 19 8 10 - - 0.0
29/06:30am 8.6 5.7 6.4 86 1.0 N 11 19 6 10 - - 0.0
29/06:00am 8.6 5.4 6.9 89 0.8 N 13 17 7 9 - - 0.0
29/05:30am 8.5 5.8 7.3 92 0.6 N 11 15 6 8 - - 0.0
29/05:00am 8.3 5.9 7.2 93 0.5 NNE 9 13 5 7 - - 0.0
29/04:30am 8.2 5.1 7.3 94 0.4 NNE 13 20 7 11 - - 0.0
29/04:00am 7.6 5.6 7.2 97 0.2 N 7 13 4 7 - - 0.0
29/03:30am 7.0 5.0 6.9 99 0.0 N 7 9 4 5 - - 0.0
29/03:00am 5.8 3.1 5.7 99 0.0 N 9 13 5 7 - - 0.0
29/02:30am 4.9 2.0 4.6 98 0.1 NNE 9 11 5 6 - - 0.0
29/02:00am 5.5 2.7 5.2 98 0.1 NNE 9 11 5 6 - - 0.0
29/01:30am 5.7 3.0 5.4 98 0.1 NNE 9 9 5 5 - - 0.0
29/01:00am 6.0 2.9 5.7 98 0.1 NNE 11 11 6 6 - - 0.0
29/12:30am 5.7 2.9 5.3 97 0.2 N 9 11 5 6 - - 0.0
29/12:00am 5.8 3.4 5.2 96 0.3 N 7 9 4 5 - - 0.0
 
Date/Time
CST
Temp
°C
App
Temp
°C
Dew
Point
Rel
Hum
%
Delta-T
°C
Wind Press
QNH
hPa
Press
MSL
hPa
Rain
since 9 am
mm
Dir
 
Spd
km/h
Gust
km/h
Spd
kts
Gust
kts
28/11:30pm 6.4 5.5 6.0 97 0.2 CALM 0 0 0 0 - - 0.0
28/11:00pm 6.5 3.9 5.9 96 0.3 N 9 9 5 5 - - 0.0
28/10:30pm 6.5 3.9 5.9 96 0.3 N 9 11 5 6 - - 0.0
28/10:00pm 7.1 4.9 6.2 94 0.4 NNE 7 7 4 4 - - 0.0
28/09:30pm 8.0 5.6 7.1 94 0.4 N 9 9 5 5 - - 0.0
28/09:00pm 8.0 5.6 6.9 93 0.5 NNE 9 9 5 5 - - 0.0
28/08:30pm 8.7 6.9 7.3 91 0.7 NNW 6 7 3 4 - - 0.0
28/08:00pm 9.1 7.4 7.7 91 0.7 NW 6 7 3 4 - - 0.0
28/07:30pm 9.0 7.7 7.6 91 0.7 NW 4 7 2 4 - - 0.0
28/07:00pm 9.1 7.2 7.5 90 0.8 NW 7 7 4 4 - - 0.0
28/06:30pm 9.3 7.6 7.4 88 0.9 NW 6 7 3 4 - - 0.0
28/06:00pm 9.6 7.9 7.5 87 1.0 NW 6 7 3 4 - - 0.0
28/05:30pm 10.0 7.7 7.3 83 1.3 WNW 9 15 5 8 - - 0.0
28/05:00pm 11.0 8.7 7.5 79 1.7 W 9 13 5 7 - - 0.0
28/04:30pm 11.6 8.2 7.7 77 1.9 W 15 19 8 10 - - 0.0
28/04:00pm 12.1 8.1 8.2 77 1.9 W 19 24 10 13 - - 0.0
28/03:30pm 11.8 8.9 8.3 79 1.7 SW 13 19 7 10 - - 0.0
28/03:00pm 13.0 9.9 7.2 68 2.8 WNW 13 20 7 11 - - 0.0
28/02:30pm 12.8 10.8 8.5 75 2.1 W 9 13 5 7 - - 0.0
28/02:00pm 13.8 11.5 7.6 66 3.1 NW 9 15 5 8 - - 0.0
28/01:30pm 11.9 9.9 8.6 80 1.6 SSW 9 13 5 7 - - 0.0
28/01:00pm 12.6 9.7 8.3 75 2.1 NW 13 17 7 9 - - 0.0
28/12:30pm 12.9 9.6 8.2 73 2.3 NW 15 19 8 10 - - 0.0
28/12:00pm 12.6 9.1 8.7 77 1.9 NW 17 24 9 13 - - 0.0
28/11:30am 12.2 9.4 8.5 78 1.8 NW 13 19 7 10 - - 0.0
28/11:00am 12.0 10.1 9.2 83 1.4 NW 9 13 5 7 - - 0.0
28/10:30am 10.8 8.0 8.6 86 1.1 NW 13 17 7 9 - - 0.0
28/10:00am 10.0 8.0 8.6 91 0.7 NNW 9 13 5 7 - - 0.0
28/09:30am 9.0 6.6 8.5 97 0.2 NNW 11 15 6 8 - - 0.0
28/09:00am 8.1 5.6 8.0 99 0.0 NNW 11 15 6 8 - - 0.8
28/08:30am 6.9 4.1 6.8 99 0.0 N 11 13 6 7 - - 0.8
28/08:00am 5.4 2.2 5.3 99 0.0 NNW 11 13 6 7 - - 0.8
28/07:30am 5.1 2.3 5.0 99 0.0 NNW 9 13 5 7 - - 0.6
28/07:00am 4.3 1.3 4.2 99 0.0 NNW 9 9 5 5 - - 0.6
28/06:30am 4.1 1.5 4.0 99 0.0 NW 7 9 4 5 - - 0.6
28/06:00am 2.8 -0.5 2.7 99 0.0 NNW 9 11 5 6 - - 0.6
28/05:30am 1.8 -1.6 1.7 99 0.0 NNW 9 9 5 5 - - 0.6
28/05:00am 2.2 -0.2 2.1 99 0.0 NNW 4 9 2 5 - - 0.6
28/04:30am 2.6 -0.1 2.5 99 0.0 NNW 6 7 3 4 - - 0.6
28/04:00am 4.1 1.1 4.0 99 0.0 NNW 9 9 5 5 - - 0.6
28/03:30am 4.9 2.0 4.8 99 0.0 N 9 11 5 6 - - 0.6
28/03:00am 5.1 2.3 5.0 99 0.0 NNW 9 11 5 6 - - 0.6
28/02:30am 5.4 2.6 5.3 99 0.0 NW 9 9 5 5 - - 0.6
28/02:00am 5.7 3.0 5.6 99 0.0 NNW 9 11 5 6 - - 0.6
28/01:30am 5.9 2.9 5.8 99 0.0 NNW 11 13 6 7 - - 0.6
28/01:00am 6.3 3.7 6.2 99 0.0 NNW 9 13 5 7 - - 0.6
28/12:30am 6.1 3.5 6.0 99 0.0 NNW 9 11 5 6 - - 0.6
28/12:00am 6.6 3.7 6.5 99 0.0 NNW 11 13 6 7 - - 0.6
 
Date/Time
CST
Temp
°C
App
Temp
°C
Dew
Point
Rel
Hum
%
Delta-T
°C
Wind Press
QNH
hPa
Press
MSL
hPa
Rain
since 9 am
mm
Dir
 
Spd
km/h
Gust
km/h
Spd
kts
Gust
kts
27/11:30pm 6.9 4.5 6.8 99 0.0 NNW 9 11 5 6 - - 0.6
27/11:00pm 6.6 4.0 6.2 97 0.2 NNW 9 11 5 6 - - 0.6
27/10:30pm 7.4 5.0 7.1 98 0.1 NNW 9 13 5 7 - - 0.6
27/10:00pm 7.5 5.5 7.2 98 0.1 NNW 7 9 4 5 - - 0.6
27/09:30pm 7.5 4.7 7.1 97 0.2 NW 11 13 6 7 - - 0.6
27/09:00pm 7.7 5.7 7.3 97 0.2 NNW 7 9 4 5 - - 0.4
27/08:30pm 7.8 5.5 7.5 98 0.1 NW 9 11 5 6 - - 0.4
27/08:00pm 7.0 4.9 6.6 97 0.2 NNW 7 9 4 5 - - 0.4

Other Formats:

Comma delimited format used in spreadsheet applications
http://www.bom.gov.au/fwo/IDS60801/IDS60801.95823.axf

JavaScript Object Notation format (JSON) in row-major order
http://www.bom.gov.au/fwo/IDS60801/IDS60801.95823.json